sensor_id;sensor_type;location;lat;lon;timestamp;pressure;altitude;pressure_sealevel;temperature;humidity
967;BME280;56108;48.730;9.304;2023-11-19T00:01:58;97243.63;;;6.62;100.00
967;BME280;56108;48.730;9.304;2023-11-19T00:04:07;97246.38;;;6.61;100.00
967;BME280;56108;48.730;9.304;2023-11-19T00:06:16;97234.13;;;6.74;100.00
967;BME280;56108;48.730;9.304;2023-11-19T00:08:24;97234.00;;;6.61;100.00
967;BME280;56108;48.730;9.304;2023-11-19T00:10:33;97218.91;;;6.63;100.00
967;BME280;56108;48.730;9.304;2023-11-19T00:12:45;97226.47;;;6.69;100.00
967;BME280;56108;48.730;9.304;2023-11-19T00:14:54;97211.44;;;6.70;100.00
967;BME280;56108;48.730;9.304;2023-11-19T00:17:00;97204.19;;;6.73;100.00
967;BME280;56108;48.730;9.304;2023-11-19T00:19:09;97198.91;;;6.73;100.00
967;BME280;56108;48.730;9.304;2023-11-19T00:21:15;97189.91;;;6.76;100.00
967;BME280;56108;48.730;9.304;2023-11-19T00:23:23;97188.34;;;6.73;100.00
967;BME280;56108;48.730;9.304;2023-11-19T00:25:31;97179.25;;;6.77;100.00
967;BME280;56108;48.730;9.304;2023-11-19T00:27:37;97168.28;;;6.84;100.00
967;BME280;56108;48.730;9.304;2023-11-19T00:29:48;97166.41;;;6.86;100.00
967;BME280;56108;48.730;9.304;2023-11-19T00:31:56;97165.84;;;6.95;100.00
967;BME280;56108;48.730;9.304;2023-11-19T00:34:05;97165.47;;;7.01;100.00
967;BME280;56108;48.730;9.304;2023-11-19T00:36:14;97164.34;;;7.05;100.00
967;BME280;56108;48.730;9.304;2023-11-19T00:38:22;97162.03;;;7.13;100.00
967;BME280;56108;48.730;9.304;2023-11-19T00:40:31;97163.75;;;7.14;100.00
967;BME280;56108;48.730;9.304;2023-11-19T00:42:40;97157.03;;;7.09;100.00
967;BME280;56108;48.730;9.304;2023-11-19T00:44:48;97157.03;;;7.09;100.00
967;BME280;56108;48.730;9.304;2023-11-19T00:46:57;97149.03;;;7.10;100.00
967;BME280;56108;48.730;9.304;2023-11-19T00:49:06;97145.31;;;7.13;100.00
967;BME280;56108;48.730;9.304;2023-11-19T00:51:17;97142.28;;;7.19;100.00
967;BME280;56108;48.730;9.304;2023-11-19T00:53:25;97137.84;;;7.19;100.00
967;BME280;56108;48.730;9.304;2023-11-19T00:55:34;97128.94;;;7.20;100.00
967;BME280;56108;48.730;9.304;2023-11-19T00:57:51;97119.25;;;7.21;100.00
967;BME280;56108;48.730;9.304;2023-11-19T01:00:05;97119.97;;;7.23;100.00
967;BME280;56108;48.730;9.304;2023-11-19T01:02:24;97117.34;;;7.23;100.00
967;BME280;56108;48.730;9.304;2023-11-19T01:04:34;97110.78;;;7.28;100.00
967;BME280;56108;48.730;9.304;2023-11-19T01:06:43;97121.19;;;7.31;100.00
967;BME280;56108;48.730;9.304;2023-11-19T01:08:54;97104.47;;;7.31;100.00
967;BME280;56108;48.730;9.304;2023-11-19T01:11:00;97104.06;;;7.37;100.00
967;BME280;56108;48.730;9.304;2023-11-19T01:13:09;97100.47;;;7.38;100.00
967;BME280;56108;48.730;9.304;2023-11-19T01:15:20;97093.94;;;7.44;100.00
967;BME280;56108;48.730;9.304;2023-11-19T01:17:29;97087.91;;;7.42;100.00
967;BME280;56108;48.730;9.304;2023-11-19T01:19:37;97095.50;;;7.46;100.00
967;BME280;56108;48.730;9.304;2023-11-19T01:21:46;97089.38;;;7.46;100.00
967;BME280;56108;48.730;9.304;2023-11-19T01:23:54;97084.19;;;7.44;100.00
967;BME280;56108;48.730;9.304;2023-11-19T01:26:03;97086.72;;;7.46;100.00
967;BME280;56108;48.730;9.304;2023-11-19T01:28:15;97081.06;;;7.52;100.00
967;BME280;56108;48.730;9.304;2023-11-19T01:30:27;97071.63;;;7.61;100.00
967;BME280;56108;48.730;9.304;2023-11-19T01:32:35;97076.31;;;7.57;100.00
967;BME280;56108;48.730;9.304;2023-11-19T01:34:44;97071.94;;;7.56;100.00
967;BME280;56108;48.730;9.304;2023-11-19T01:36:52;97062.84;;;7.60;100.00
967;BME280;56108;48.730;9.304;2023-11-19T01:39:01;97057.25;;;7.65;100.00
967;BME280;56108;48.730;9.304;2023-11-19T01:41:10;97061.59;;;7.66;100.00
967;BME280;56108;48.730;9.304;2023-11-19T01:43:32;97059.91;;;7.65;100.00
967;BME280;56108;48.730;9.304;2023-11-19T01:45:43;97056.84;;;7.71;100.00
967;BME280;56108;48.730;9.304;2023-11-19T01:47:52;97054.31;;;7.69;100.00
967;BME280;56108;48.730;9.304;2023-11-19T01:50:01;97056.59;;;7.61;100.00
967;BME280;56108;48.730;9.304;2023-11-19T01:52:11;97059.91;;;7.65;100.00
967;BME280;56108;48.730;9.304;2023-11-19T01:54:20;97069.53;;;7.66;100.00
967;BME280;56108;48.730;9.304;2023-11-19T01:56:29;97065.31;;;7.63;100.00
967;BME280;56108;48.730;9.304;2023-11-19T01:58:39;97058.16;;;7.78;100.00
967;BME280;56108;48.730;9.304;2023-11-19T02:00:49;97062.91;;;7.85;100.00
967;BME280;56108;48.730;9.304;2023-11-19T02:02:58;97058.34;;;7.88;100.00
967;BME280;56108;48.730;9.304;2023-11-19T02:05:06;97060.25;;;7.85;100.00
967;BME280;56108;48.730;9.304;2023-11-19T02:07:12;97054.34;;;7.95;100.00
967;BME280;56108;48.730;9.304;2023-11-19T02:09:22;97057.84;;;8.08;100.00
967;BME280;56108;48.730;9.304;2023-11-19T02:11:32;97046.94;;;8.00;100.00
967;BME280;56108;48.730;9.304;2023-11-19T02:13:42;97051.41;;;7.99;100.00
967;BME280;56108;48.730;9.304;2023-11-19T02:15:53;97045.34;;;7.97;100.00
967;BME280;56108;48.730;9.304;2023-11-19T02:18:20;97053.94;;;8.01;100.00
967;BME280;56108;48.730;9.304;2023-11-19T02:20:28;97042.91;;;8.07;100.00
967;BME280;56108;48.730;9.304;2023-11-19T02:22:34;97048.63;;;8.01;100.00
967;BME280;56108;48.730;9.304;2023-11-19T02:24:43;97043.56;;;8.10;100.00
967;BME280;56108;48.730;9.304;2023-11-19T02:26:57;97034.00;;;8.08;100.00
967;BME280;56108;48.730;9.304;2023-11-19T02:29:11;97036.88;;;8.05;100.00
967;BME280;56108;48.730;9.304;2023-11-19T02:31:20;97028.09;;;8.17;100.00
967;BME280;56108;48.730;9.304;2023-11-19T02:33:29;97026.28;;;8.05;100.00
967;BME280;56108;48.730;9.304;2023-11-19T02:35:34;97034.44;;;8.02;100.00
967;BME280;56108;48.730;9.304;2023-11-19T02:37:42;97035.16;;;7.91;100.00
967;BME280;56108;48.730;9.304;2023-11-19T02:39:51;97034.19;;;7.92;100.00
967;BME280;56108;48.730;9.304;2023-11-19T02:41:59;97029.66;;;7.94;100.00
967;BME280;56108;48.730;9.304;2023-11-19T02:44:08;97027.75;;;8.09;100.00
967;BME280;56108;48.730;9.304;2023-11-19T02:46:19;97030.28;;;7.98;100.00
967;BME280;56108;48.730;9.304;2023-11-19T02:48:28;97033.03;;;7.96;100.00
967;BME280;56108;48.730;9.304;2023-11-19T02:50:36;97030.19;;;7.99;100.00
967;BME280;56108;48.730;9.304;2023-11-19T02:52:44;97033.69;;;8.00;100.00
967;BME280;56108;48.730;9.304;2023-11-19T02:54:53;97036.44;;;7.98;100.00
967;BME280;56108;48.730;9.304;2023-11-19T02:57:03;97040.50;;;8.04;100.00
967;BME280;56108;48.730;9.304;2023-11-19T02:59:25;97034.78;;;8.10;100.00
967;BME280;56108;48.730;9.304;2023-11-19T03:01:47;97043.03;;;8.18;100.00
967;BME280;56108;48.730;9.304;2023-11-19T03:03:56;97043.88;;;8.31;100.00
967;BME280;56108;48.730;9.304;2023-11-19T03:06:07;97023.97;;;8.39;100.00
967;BME280;56108;48.730;9.304;2023-11-19T03:08:16;97031.81;;;8.53;100.00
967;BME280;56108;48.730;9.304;2023-11-19T03:10:28;97034.13;;;8.32;100.00
967;BME280;56108;48.730;9.304;2023-11-19T03:12:37;97034.78;;;8.48;100.00
967;BME280;56108;48.730;9.304;2023-11-19T03:14:42;97031.72;;;8.42;100.00
967;BME280;56108;48.730;9.304;2023-11-19T03:16:56;97032.69;;;8.41;100.00
967;BME280;56108;48.730;9.304;2023-11-19T03:19:04;97045.06;;;8.40;100.00
967;BME280;56108;48.730;9.304;2023-11-19T03:21:12;97051.25;;;8.41;100.00
967;BME280;56108;48.730;9.304;2023-11-19T03:25:45;97045.81;;;8.55;100.00
967;BME280;56108;48.730;9.304;2023-11-19T03:27:53;97041.34;;;8.55;100.00
967;BME280;56108;48.730;9.304;2023-11-19T03:30:02;97044.09;;;8.79;100.00
967;BME280;56108;48.730;9.304;2023-11-19T03:32:14;97041.09;;;8.71;100.00
967;BME280;56108;48.730;9.304;2023-11-19T03:34:22;97044.09;;;8.79;100.00
967;BME280;56108;48.730;9.304;2023-11-19T03:36:34;97049.25;;;8.94;100.00
967;BME280;56108;48.730;9.304;2023-11-19T03:38:42;97052.63;;;8.96;100.00
967;BME280;56108;48.730;9.304;2023-11-19T03:40:50;97050.56;;;8.88;100.00
967;BME280;56108;48.730;9.304;2023-11-19T03:42:57;97048.44;;;8.80;100.00
967;BME280;56108;48.730;9.304;2023-11-19T03:45:06;97036.31;;;8.89;100.00
967;BME280;56108;48.730;9.304;2023-11-19T03:47:16;97037.38;;;8.86;100.00
967;BME280;56108;48.730;9.304;2023-11-19T03:49:24;97034.19;;;8.81;100.00
967;BME280;56108;48.730;9.304;2023-11-19T03:51:33;97022.84;;;8.79;100.00
967;BME280;56108;48.730;9.304;2023-11-19T03:53:42;97026.03;;;8.84;100.00
967;BME280;56108;48.730;9.304;2023-11-19T03:55:50;97035.81;;;8.71;100.00
967;BME280;56108;48.730;9.304;2023-11-19T03:57:58;97043.03;;;8.69;100.00
967;BME280;56108;48.730;9.304;2023-11-19T04:00:10;97041.03;;;8.60;100.00
967;BME280;56108;48.730;9.304;2023-11-19T04:02:21;97040.41;;;8.56;100.00
967;BME280;56108;48.730;9.304;2023-11-19T04:04:32;97019.28;;;8.68;100.00
967;BME280;56108;48.730;9.304;2023-11-19T04:06:41;97026.72;;;8.62;100.00
967;BME280;56108;48.730;9.304;2023-11-19T04:08:49;97021.66;;;8.47;100.00
967;BME280;56108;48.730;9.304;2023-11-19T04:11:00;97014.81;;;8.55;100.00
967;BME280;56108;48.730;9.304;2023-11-19T04:13:09;97014.53;;;8.47;100.00
967;BME280;56108;48.730;9.304;2023-11-19T04:15:21;97017.91;;;8.49;100.00
967;BME280;56108;48.730;9.304;2023-11-19T04:17:32;97020.44;;;8.51;100.00
967;BME280;56108;48.730;9.304;2023-11-19T04:19:39;97019.41;;;8.53;100.00
967;BME280;56108;48.730;9.304;2023-11-19T04:21:48;97023.34;;;8.48;100.00
967;BME280;56108;48.730;9.304;2023-11-19T04:23:57;97014.50;;;8.60;100.00
967;BME280;56108;48.730;9.304;2023-11-19T04:26:06;97017.88;;;8.75;100.00
967;BME280;56108;48.730;9.304;2023-11-19T04:28:15;97027.63;;;8.74;100.00
967;BME280;56108;48.730;9.304;2023-11-19T04:30:24;97028.94;;;8.69;100.00
967;BME280;56108;48.730;9.304;2023-11-19T04:32:35;97009.03;;;8.87;100.00
967;BME280;56108;48.730;9.304;2023-11-19T04:34:44;97008.09;;;8.88;100.00
967;BME280;56108;48.730;9.304;2023-11-19T04:36:53;96999.78;;;8.93;100.00
967;BME280;56108;48.730;9.304;2023-11-19T04:39:02;97003.47;;;9.03;100.00
967;BME280;56108;48.730;9.304;2023-11-19T04:41:14;97006.81;;;9.18;100.00
967;BME280;56108;48.730;9.304;2023-11-19T04:43:24;97004.16;;;9.18;100.00
967;BME280;56108;48.730;9.304;2023-11-19T04:45:32;97009.91;;;9.11;100.00
967;BME280;56108;48.730;9.304;2023-11-19T04:47:44;97007.88;;;9.15;100.00
967;BME280;56108;48.730;9.304;2023-11-19T04:49:52;97012.34;;;9.14;100.00
967;BME280;56108;48.730;9.304;2023-11-19T04:52:02;97016.75;;;9.27;100.00
967;BME280;56108;48.730;9.304;2023-11-19T04:54:13;97007.72;;;9.29;100.00
967;BME280;56108;48.730;9.304;2023-11-19T04:56:21;97014.59;;;9.32;100.00
967;BME280;56108;48.730;9.304;2023-11-19T04:58:31;97009.47;;;9.41;100.00
967;BME280;56108;48.730;9.304;2023-11-19T05:00:39;97017.31;;;9.43;100.00
967;BME280;56108;48.730;9.304;2023-11-19T05:02:50;97015.91;;;9.50;100.00
967;BME280;56108;48.730;9.304;2023-11-19T05:04:59;97020.81;;;9.44;100.00
967;BME280;56108;48.730;9.304;2023-11-19T05:07:05;97031.56;;;9.42;100.00
967;BME280;56108;48.730;9.304;2023-11-19T05:09:13;97034.09;;;9.44;100.00
967;BME280;56108;48.730;9.304;2023-11-19T05:11:21;97024.47;;;9.54;100.00
967;BME280;56108;48.730;9.304;2023-11-19T05:13:29;97031.94;;;9.49;100.00
967;BME280;56108;48.730;9.304;2023-11-19T05:15:35;97031.28;;;9.58;100.00
967;BME280;56108;48.730;9.304;2023-11-19T05:17:43;97032.63;;;9.63;100.00
967;BME280;56108;48.730;9.304;2023-11-19T05:19:55;97032.97;;;9.59;100.00
967;BME280;56108;48.730;9.304;2023-11-19T05:22:03;97031.28;;;9.58;100.00
967;BME280;56108;48.730;9.304;2023-11-19T05:24:12;97032.41;;;9.66;100.00
967;BME280;56108;48.730;9.304;2023-11-19T05:26:21;97024.81;;;9.73;100.00
967;BME280;56108;48.730;9.304;2023-11-19T05:28:30;97029.84;;;9.65;100.00
967;BME280;56108;48.730;9.304;2023-11-19T05:30:38;97037.38;;;9.71;100.00
967;BME280;56108;48.730;9.304;2023-11-19T05:32:46;97046.06;;;9.73;100.00
967;BME280;56108;48.730;9.304;2023-11-19T05:34:57;97053.03;;;9.87;100.00
967;BME280;56108;48.730;9.304;2023-11-19T05:37:06;97068.34;;;9.83;100.00
967;BME280;56108;48.730;9.304;2023-11-19T05:39:16;97061.84;;;9.87;100.00
967;BME280;56108;48.730;9.304;2023-11-19T05:41:25;97074.88;;;9.90;100.00
967;BME280;56108;48.730;9.304;2023-11-19T05:43:34;97073.31;;;9.88;100.00
967;BME280;56108;48.730;9.304;2023-11-19T05:45:43;97074.66;;;9.93;100.00
967;BME280;56108;48.730;9.304;2023-11-19T05:47:51;97072.19;;;9.79;100.00
967;BME280;56108;48.730;9.304;2023-11-19T05:50:03;97074.66;;;9.93;100.00
967;BME280;56108;48.730;9.304;2023-11-19T05:52:13;97078.50;;;9.89;100.00
967;BME280;56108;48.730;9.304;2023-11-19T05:54:22;97075.38;;;9.96;100.00
967;BME280;56108;48.730;9.304;2023-11-19T05:56:32;97082.28;;;9.98;100.00
967;BME280;56108;48.730;9.304;2023-11-19T05:58:40;97086.75;;;9.98;100.00
967;BME280;56108;48.730;9.304;2023-11-19T06:00:50;97090.88;;;10.02;100.00
967;BME280;56108;48.730;9.304;2023-11-19T06:02:56;97089.41;;;9.98;100.00
967;BME280;56108;48.730;9.304;2023-11-19T06:05:08;97094.16;;;10.05;100.00
967;BME280;56108;48.730;9.304;2023-11-19T06:07:16;97086.75;;;9.98;100.00
967;BME280;56108;48.730;9.304;2023-11-19T06:09:25;97096.66;;;9.96;100.00
967;BME280;56108;48.730;9.304;2023-11-19T06:11:37;97082.88;;;10.02;100.00
967;BME280;56108;48.730;9.304;2023-11-19T06:13:46;97081.19;;;10.01;100.00
967;BME280;56108;48.730;9.304;2023-11-19T06:15:56;97079.16;;;10.04;100.00
967;BME280;56108;48.730;9.304;2023-11-19T06:18:05;97078.31;;;10.04;100.00
967;BME280;56108;48.730;9.304;2023-11-19T06:20:16;97080.59;;;9.97;100.00
967;BME280;56108;48.730;9.304;2023-11-19T06:22:25;97081.19;;;10.01;100.00
967;BME280;56108;48.730;9.304;2023-11-19T06:24:33;97076.22;;;9.96;100.00
967;BME280;56108;48.730;9.304;2023-11-19T06:26:45;97070.34;;;10.04;100.00
967;BME280;56108;48.730;9.304;2023-11-19T06:28:53;97079.03;;;10.06;100.00
967;BME280;56108;48.730;9.304;2023-11-19T06:31:03;97079.38;;;10.01;100.00
967;BME280;56108;48.730;9.304;2023-11-19T06:33:12;97086.78;;;10.09;100.00
967;BME280;56108;48.730;9.304;2023-11-19T06:35:24;97080.88;;;10.16;100.00
967;BME280;56108;48.730;9.304;2023-11-19T06:37:38;97092.22;;;10.07;100.00
967;BME280;56108;48.730;9.304;2023-11-19T06:39:47;97086.38;;;10.02;100.00
967;BME280;56108;48.730;9.304;2023-11-19T06:41:55;97095.13;;;10.04;100.00
967;BME280;56108;48.730;9.304;2023-11-19T06:44:05;97092.81;;;10.00;100.00
967;BME280;56108;48.730;9.304;2023-11-19T06:46:17;97090.31;;;10.09;100.00
967;BME280;56108;48.730;9.304;2023-11-19T06:48:26;97096.47;;;10.10;100.00
967;BME280;56108;48.730;9.304;2023-11-19T06:50:37;97097.31;;;10.10;100.00
967;BME280;56108;48.730;9.304;2023-11-19T06:52:46;97096.00;;;10.16;100.00
967;BME280;56108;48.730;9.304;2023-11-19T06:54:55;97092.22;;;10.07;100.00
967;BME280;56108;48.730;9.304;2023-11-19T06:57:06;97087.66;;;10.20;100.00
967;BME280;56108;48.730;9.304;2023-11-19T06:59:15;97101.81;;;10.21;100.00
967;BME280;56108;48.730;9.304;2023-11-19T07:01:24;97102.28;;;10.15;100.00
967;BME280;56108;48.730;9.304;2023-11-19T07:03:32;97110.50;;;10.23;100.00
967;BME280;56108;48.730;9.304;2023-11-19T07:05:46;97111.72;;;10.19;100.00
967;BME280;56108;48.730;9.304;2023-11-19T07:07:54;97112.31;;;10.23;100.00
967;BME280;56108;48.730;9.304;2023-11-19T07:10:04;97112.25;;;10.24;100.00
967;BME280;56108;48.730;9.304;2023-11-19T07:12:14;97118.59;;;10.22;100.00
967;BME280;56108;48.730;9.304;2023-11-19T07:14:22;97122.06;;;10.24;100.00
967;BME280;56108;48.730;9.304;2023-11-19T07:16:32;97119.50;;;10.33;100.00
967;BME280;56108;48.730;9.304;2023-11-19T07:18:42;97124.97;;;10.32;100.00
967;BME280;56108;48.730;9.304;2023-11-19T07:20:53;97126.56;;;10.34;100.00
967;BME280;56108;48.730;9.304;2023-11-19T07:22:59;97127.66;;;10.43;100.00
967;BME280;56108;48.730;9.304;2023-11-19T07:25:08;97127.75;;;10.30;100.00
967;BME280;56108;48.730;9.304;2023-11-19T07:27:19;97125.31;;;10.27;100.00
967;BME280;56108;48.730;9.304;2023-11-19T07:29:27;97126.06;;;10.29;100.00
967;BME280;56108;48.730;9.304;2023-11-19T07:31:36;97124.28;;;10.41;100.00
967;BME280;56108;48.730;9.304;2023-11-19T07:33:42;97128.25;;;10.35;100.00
967;BME280;56108;48.730;9.304;2023-11-19T07:35:55;97125.09;;;10.30;100.00
967;BME280;56108;48.730;9.304;2023-11-19T07:38:06;97118.16;;;10.28;100.00
967;BME280;56108;48.730;9.304;2023-11-19T07:40:17;97129.31;;;10.33;100.00
967;BME280;56108;48.730;9.304;2023-11-19T07:42:25;97132.72;;;10.35;100.00
967;BME280;56108;48.730;9.304;2023-11-19T07:44:34;97131.28;;;10.42;100.00
967;BME280;56108;48.730;9.304;2023-11-19T07:46:42;97142.59;;;10.33;100.00
967;BME280;56108;48.730;9.304;2023-11-19T07:48:51;97139.72;;;10.36;100.00
967;BME280;56108;48.730;9.304;2023-11-19T07:51:03;97141.03;;;10.30;100.00
967;BME280;56108;48.730;9.304;2023-11-19T07:53:11;97134.41;;;10.36;100.00
967;BME280;56108;48.730;9.304;2023-11-19T07:55:19;97128.25;;;10.35;100.00
967;BME280;56108;48.730;9.304;2023-11-19T07:57:28;97127.91;;;10.40;100.00
967;BME280;56108;48.730;9.304;2023-11-19T07:59:36;97139.72;;;10.36;100.00
967;BME280;56108;48.730;9.304;2023-11-19T08:01:44;97147.72;;;10.47;100.00
967;BME280;56108;48.730;9.304;2023-11-19T08:03:53;97154.88;;;10.47;100.00
967;BME280;56108;48.730;9.304;2023-11-19T08:06:07;97164.06;;;10.54;100.00
967;BME280;56108;48.730;9.304;2023-11-19T08:08:15;97160.22;;;10.58;100.00
967;BME280;56108;48.730;9.304;2023-11-19T08:10:24;97156.22;;;10.52;100.00
967;BME280;56108;48.730;9.304;2023-11-19T08:12:32;97153.91;;;10.48;100.00
967;BME280;56108;48.730;9.304;2023-11-19T08:14:40;97141.88;;;10.66;100.00
967;BME280;56108;48.730;9.304;2023-11-19T08:16:51;97150.91;;;10.63;100.00
967;BME280;56108;48.730;9.304;2023-11-19T08:19:01;97159.25;;;10.70;100.00
967;BME280;56108;48.730;9.304;2023-11-19T08:21:09;97163.31;;;10.76;100.00
967;BME280;56108;48.730;9.304;2023-11-19T08:23:18;97174.44;;;10.81;100.00
967;BME280;56108;48.730;9.304;2023-11-19T08:25:27;97178.94;;;10.91;100.00
967;BME280;56108;48.730;9.304;2023-11-19T08:27:37;97184.63;;;10.98;100.00
967;BME280;56108;48.730;9.304;2023-11-19T08:29:46;97189.59;;;10.91;100.00
967;BME280;56108;48.730;9.304;2023-11-19T08:31:54;97203.25;;;10.98;100.00
967;BME280;56108;48.730;9.304;2023-11-19T08:34:06;97218.03;;;11.02;100.00
967;BME280;56108;48.730;9.304;2023-11-19T08:36:22;97213.69;;;11.12;100.00
967;BME280;56108;48.730;9.304;2023-11-19T08:38:31;97218.91;;;11.25;100.00
967;BME280;56108;48.730;9.304;2023-11-19T08:40:36;97228.09;;;11.32;100.00
967;BME280;56108;48.730;9.304;2023-11-19T08:42:45;97244.09;;;11.66;100.00
967;BME280;56108;48.730;9.304;2023-11-19T08:44:55;97261.31;;;11.62;100.00
967;BME280;56108;48.730;9.304;2023-11-19T08:47:03;97290.84;;;11.59;100.00
967;BME280;56108;48.730;9.304;2023-11-19T08:49:12;97301.06;;;11.65;100.00
967;BME280;56108;48.730;9.304;2023-11-19T08:51:23;97311.72;;;11.76;100.00
967;BME280;56108;48.730;9.304;2023-11-19T08:53:33;97307.13;;;11.89;100.00
967;BME280;56108;48.730;9.304;2023-11-19T08:55:41;97310.53;;;11.91;100.00
967;BME280;56108;48.730;9.304;2023-11-19T08:57:50;97314.91;;;11.92;100.00
967;BME280;56108;48.730;9.304;2023-11-19T08:59:59;97326.06;;;11.97;100.00
967;BME280;56108;48.730;9.304;2023-11-19T09:02:05;97335.25;;;11.93;100.00
967;BME280;56108;48.730;9.304;2023-11-19T09:04:14;97326.63;;;11.90;100.00
967;BME280;56108;48.730;9.304;2023-11-19T09:06:25;97323.13;;;12.00;100.00
967;BME280;56108;48.730;9.304;2023-11-19T09:08:34;97331.34;;;12.31;100.00
967;BME280;56108;48.730;9.304;2023-11-19T09:10:42;97343.47;;;12.78;100.00
967;BME280;56108;48.730;9.304;2023-11-19T09:12:51;97397.56;;;13.98;100.00
967;BME280;56108;48.730;9.304;2023-11-19T09:15:02;97457.63;;;15.06;100.00
967;BME280;56108;48.730;9.304;2023-11-19T09:17:11;97460.81;;;15.89;100.00
967;BME280;56108;48.730;9.304;2023-11-19T09:19:17;97465.03;;;15.43;100.00
967;BME280;56108;48.730;9.304;2023-11-19T09:21:28;97464.88;;;15.54;100.00
967;BME280;56108;48.730;9.304;2023-11-19T09:23:45;97467.97;;;15.21;100.00
967;BME280;56108;48.730;9.304;2023-11-19T09:25:54;97457.13;;;14.72;100.00
967;BME280;56108;48.730;9.304;2023-11-19T09:28:03;97456.69;;;14.16;100.00
967;BME280;56108;48.730;9.304;2023-11-19T09:30:12;97453.22;;;14.04;100.00
967;BME280;56108;48.730;9.304;2023-11-19T09:32:21;97458.19;;;13.67;100.00
967;BME280;56108;48.730;9.304;2023-11-19T09:34:30;97456.72;;;13.42;100.00
967;BME280;56108;48.730;9.304;2023-11-19T09:36:41;97452.06;;;13.12;100.00
967;BME280;56108;48.730;9.304;2023-11-19T09:38:50;97455.91;;;13.19;100.00
967;BME280;56108;48.730;9.304;2023-11-19T09:40:58;97458.84;;;13.16;100.00
967;BME280;56108;48.730;9.304;2023-11-19T09:43:07;97454.47;;;13.26;100.00
967;BME280;56108;48.730;9.304;2023-11-19T09:45:14;97448.16;;;13.16;100.00
967;BME280;56108;48.730;9.304;2023-11-19T09:47:23;97445.81;;;13.34;100.00
967;BME280;56108;48.730;9.304;2023-11-19T09:49:35;97444.25;;;13.63;100.00
967;BME280;56108;48.730;9.304;2023-11-19T09:51:47;97449.22;;;13.68;100.00
967;BME280;56108;48.730;9.304;2023-11-19T09:53:55;97458.13;;;13.78;100.00
967;BME280;56108;48.730;9.304;2023-11-19T09:56:04;97455.53;;;13.35;100.00
967;BME280;56108;48.730;9.304;2023-11-19T09:58:16;97460.34;;;13.94;100.00
967;BME280;56108;48.730;9.304;2023-11-19T10:00:25;97458.34;;;14.38;100.00
967;BME280;56108;48.730;9.304;2023-11-19T10:02:34;97481.66;;;15.27;100.00
967;BME280;56108;48.730;9.304;2023-11-19T10:04:45;97468.19;;;15.87;100.00
967;BME280;56108;48.730;9.304;2023-11-19T10:06:58;97466.94;;;16.28;100.00
967;BME280;56108;48.730;9.304;2023-11-19T10:09:06;97462.09;;;16.88;100.00
967;BME280;56108;48.730;9.304;2023-11-19T10:11:14;97484.56;;;18.14;100.00
967;BME280;56108;48.730;9.304;2023-11-19T10:13:26;97478.19;;;18.15;100.00
967;BME280;56108;48.730;9.304;2023-11-19T10:15:37;97484.31;;;17.81;100.00
967;BME280;56108;48.730;9.304;2023-11-19T10:17:45;97462.22;;;16.97;100.00
967;BME280;56108;48.730;9.304;2023-11-19T10:19:54;97443.44;;;15.93;100.00
967;BME280;56108;48.730;9.304;2023-11-19T10:22:06;97450.03;;;15.21;100.00
967;BME280;56108;48.730;9.304;2023-11-19T10:24:14;97456.53;;;15.09;100.00
967;BME280;56108;48.730;9.304;2023-11-19T10:26:26;97448.66;;;15.36;100.00
967;BME280;56108;48.730;9.304;2023-11-19T10:28:39;97464.81;;;15.06;100.00
967;BME280;56108;48.730;9.304;2023-11-19T10:30:49;97457.63;;;15.06;100.00
967;BME280;56108;48.730;9.304;2023-11-19T10:33:05;97456.63;;;15.07;100.00
967;BME280;56108;48.730;9.304;2023-11-19T10:35:14;97456.78;;;15.06;100.00
967;BME280;56108;48.730;9.304;2023-11-19T10:37:31;97451.06;;;14.80;100.00
967;BME280;56108;48.730;9.304;2023-11-19T10:39:52;97455.75;;;14.78;100.00
967;BME280;56108;48.730;9.304;2023-11-19T10:42:15;97451.16;;;14.59;100.00
967;BME280;56108;48.730;9.304;2023-11-19T10:44:33;97449.22;;;14.71;100.00
967;BME280;56108;48.730;9.304;2023-11-19T10:46:43;97448.75;;;14.66;100.00
967;BME280;56108;48.730;9.304;2023-11-19T10:48:51;97436.81;;;14.70;100.00
967;BME280;56108;48.730;9.304;2023-11-19T10:50:57;97439.06;;;14.74;100.00
967;BME280;56108;48.730;9.304;2023-11-19T10:53:10;97441.56;;;14.66;100.00
967;BME280;56108;48.730;9.304;2023-11-19T10:55:21;97438.00;;;14.56;100.00
967;BME280;56108;48.730;9.304;2023-11-19T10:57:34;97439.59;;;14.58;100.00
967;BME280;56108;48.730;9.304;2023-11-19T10:59:45;97418.41;;;14.55;100.00
967;BME280;56108;48.730;9.304;2023-11-19T11:01:56;97423.47;;;14.49;100.00
967;BME280;56108;48.730;9.304;2023-11-19T11:04:05;97425.81;;;14.42;100.00
967;BME280;56108;48.730;9.304;2023-11-19T11:06:19;97422.09;;;14.54;100.00
967;BME280;56108;48.730;9.304;2023-11-19T11:08:31;97422.84;;;14.76;100.00
967;BME280;56108;48.730;9.304;2023-11-19T11:10:43;97425.97;;;14.81;100.00
967;BME280;56108;48.730;9.304;2023-11-19T11:12:52;97426.28;;;14.97;100.00
967;BME280;56108;48.730;9.304;2023-11-19T11:15:05;97431.13;;;15.13;100.00
967;BME280;56108;48.730;9.304;2023-11-19T11:17:17;97429.59;;;15.30;100.00
967;BME280;56108;48.730;9.304;2023-11-19T11:19:26;97434.38;;;15.17;100.00
967;BME280;56108;48.730;9.304;2023-11-19T11:21:35;97427.19;;;15.27;100.00
967;BME280;56108;48.730;9.304;2023-11-19T11:24:19;97427.19;;;15.17;100.00
967;BME280;56108;48.730;9.304;2023-11-19T11:29:08;97428.72;;;15.00;100.00
967;BME280;56108;48.730;9.304;2023-11-19T11:31:39;97427.88;;;15.09;100.00
967;BME280;56108;48.730;9.304;2023-11-19T11:36:42;97420.75;;;14.79;100.00
967;BME280;56108;48.730;9.304;2023-11-19T11:39:01;97426.59;;;15.04;100.00
967;BME280;56108;48.730;9.304;2023-11-19T11:41:17;97429.13;;;14.96;100.00
967;BME280;56108;48.730;9.304;2023-11-19T11:43:45;97431.22;;;14.92;100.00
967;BME280;56108;48.730;9.304;2023-11-19T11:45:54;97426.59;;;14.94;100.00
967;BME280;56108;48.730;9.304;2023-11-19T11:48:14;97438.88;;;15.06;100.00
967;BME280;56108;48.730;9.304;2023-11-19T11:50:21;97427.75;;;15.21;100.00
967;BME280;56108;48.730;9.304;2023-11-19T11:52:30;97430.88;;;15.26;100.00